sensor_id;sensor_type;location;lat;lon;timestamp;P1;durP1;ratioP1;P2;durP2;ratioP2
16954;SDS011;8594;52.052;8.354;2023-08-12T00:02:10;5.17;;;3.37;;
16954;SDS011;8594;52.052;8.354;2023-08-12T00:04:37;10.37;;;4.00;;
16954;SDS011;8594;52.052;8.354;2023-08-12T00:07:05;6.03;;;3.93;;
16954;SDS011;8594;52.052;8.354;2023-08-12T00:09:33;6.53;;;4.20;;
16954;SDS011;8594;52.052;8.354;2023-08-12T00:12:00;8.27;;;4.37;;
16954;SDS011;8594;52.052;8.354;2023-08-12T00:14:27;13.83;;;4.47;;
16954;SDS011;8594;52.052;8.354;2023-08-12T00:16:53;9.73;;;4.83;;
16954;SDS011;8594;52.052;8.354;2023-08-12T00:19:20;6.57;;;4.27;;
16954;SDS011;8594;52.052;8.354;2023-08-12T00:21:47;7.90;;;4.10;;
16954;SDS011;8594;52.052;8.354;2023-08-12T00:24:15;7.30;;;4.50;;
16954;SDS011;8594;52.052;8.354;2023-08-12T00:26:43;6.97;;;4.50;;
16954;SDS011;8594;52.052;8.354;2023-08-12T00:29:10;7.80;;;4.43;;
16954;SDS011;8594;52.052;8.354;2023-08-12T00:31:37;10.83;;;4.70;;
16954;SDS011;8594;52.052;8.354;2023-08-12T00:34:04;8.03;;;4.87;;
16954;SDS011;8594;52.052;8.354;2023-08-12T00:36:31;13.77;;;4.80;;
16954;SDS011;8594;52.052;8.354;2023-08-12T00:38:58;9.33;;;4.63;;
16954;SDS011;8594;52.052;8.354;2023-08-12T00:41:25;7.57;;;4.50;;
16954;SDS011;8594;52.052;8.354;2023-08-12T00:43:53;8.37;;;5.10;;
16954;SDS011;8594;52.052;8.354;2023-08-12T00:46:20;11.87;;;5.10;;
16954;SDS011;8594;52.052;8.354;2023-08-12T00:48:47;9.10;;;4.53;;
16954;SDS011;8594;52.052;8.354;2023-08-12T00:51:14;7.33;;;4.70;;
16954;SDS011;8594;52.052;8.354;2023-08-12T00:53:43;8.20;;;4.63;;
16954;SDS011;8594;52.052;8.354;2023-08-12T00:56:12;15.90;;;6.03;;
16954;SDS011;8594;52.052;8.354;2023-08-12T00:58:39;12.70;;;6.33;;
16954;SDS011;8594;52.052;8.354;2023-08-12T01:01:08;10.03;;;5.30;;
16954;SDS011;8594;52.052;8.354;2023-08-12T01:03:36;13.37;;;6.50;;
16954;SDS011;8594;52.052;8.354;2023-08-12T01:06:03;13.23;;;5.67;;
16954;SDS011;8594;52.052;8.354;2023-08-12T01:08:31;13.60;;;6.63;;
16954;SDS011;8594;52.052;8.354;2023-08-12T01:11:01;25.80;;;7.47;;
16954;SDS011;8594;52.052;8.354;2023-08-12T01:13:42;17.67;;;7.07;;
16954;SDS011;8594;52.052;8.354;2023-08-12T01:16:17;19.00;;;6.87;;
16954;SDS011;8594;52.052;8.354;2023-08-12T01:18:47;15.60;;;8.50;;
16954;SDS011;8594;52.052;8.354;2023-08-12T01:21:16;13.73;;;7.80;;
16954;SDS011;8594;52.052;8.354;2023-08-12T01:23:48;18.13;;;8.60;;
16954;SDS011;8594;52.052;8.354;2023-08-12T01:26:15;22.30;;;10.60;;
16954;SDS011;8594;52.052;8.354;2023-08-12T01:28:42;19.67;;;10.13;;
16954;SDS011;8594;52.052;8.354;2023-08-12T01:31:11;20.23;;;10.97;;
16954;SDS011;8594;52.052;8.354;2023-08-12T01:33:46;22.83;;;12.23;;
16954;SDS011;8594;52.052;8.354;2023-08-12T01:36:24;19.83;;;11.50;;
16954;SDS011;8594;52.052;8.354;2023-08-12T01:38:57;23.10;;;11.50;;
16954;SDS011;8594;52.052;8.354;2023-08-12T01:41:26;21.97;;;11.43;;
16954;SDS011;8594;52.052;8.354;2023-08-12T01:43:54;26.13;;;12.47;;
16954;SDS011;8594;52.052;8.354;2023-08-12T01:46:21;23.47;;;12.80;;
16954;SDS011;8594;52.052;8.354;2023-08-12T01:48:48;23.93;;;11.77;;
16954;SDS011;8594;52.052;8.354;2023-08-12T01:51:15;23.30;;;12.10;;
16954;SDS011;8594;52.052;8.354;2023-08-12T01:53:42;19.70;;;11.57;;
16954;SDS011;8594;52.052;8.354;2023-08-12T01:56:10;19.37;;;10.13;;
16954;SDS011;8594;52.052;8.354;2023-08-12T01:58:37;17.00;;;9.53;;
16954;SDS011;8594;52.052;8.354;2023-08-12T02:01:04;18.23;;;11.47;;
16954;SDS011;8594;52.052;8.354;2023-08-12T02:03:30;17.97;;;10.10;;
16954;SDS011;8594;52.052;8.354;2023-08-12T02:05:57;17.17;;;10.97;;
16954;SDS011;8594;52.052;8.354;2023-08-12T02:08:24;16.77;;;9.87;;
16954;SDS011;8594;52.052;8.354;2023-08-12T02:10:51;19.03;;;10.33;;
16954;SDS011;8594;52.052;8.354;2023-08-12T02:13:20;17.33;;;10.17;;
16954;SDS011;8594;52.052;8.354;2023-08-12T02:15:46;25.40;;;11.43;;
16954;SDS011;8594;52.052;8.354;2023-08-12T02:18:13;24.73;;;13.67;;
16954;SDS011;8594;52.052;8.354;2023-08-12T02:20:40;22.53;;;13.13;;
16954;SDS011;8594;52.052;8.354;2023-08-12T02:23:07;23.40;;;10.83;;
16954;SDS011;8594;52.052;8.354;2023-08-12T02:25:34;18.97;;;11.57;;
16954;SDS011;8594;52.052;8.354;2023-08-12T02:28:01;21.23;;;11.40;;
16954;SDS011;8594;52.052;8.354;2023-08-12T02:30:30;17.30;;;10.60;;
16954;SDS011;8594;52.052;8.354;2023-08-12T02:32:56;19.17;;;10.03;;
16954;SDS011;8594;52.052;8.354;2023-08-12T02:35:23;17.77;;;10.00;;
16954;SDS011;8594;52.052;8.354;2023-08-12T02:37:50;16.27;;;10.67;;
16954;SDS011;8594;52.052;8.354;2023-08-12T02:40:17;18.90;;;10.10;;
16954;SDS011;8594;52.052;8.354;2023-08-12T02:42:44;16.97;;;10.30;;
16954;SDS011;8594;52.052;8.354;2023-08-12T02:45:11;15.07;;;9.47;;
16954;SDS011;8594;52.052;8.354;2023-08-12T02:47:39;17.07;;;9.50;;
16954;SDS011;8594;52.052;8.354;2023-08-12T02:50:07;16.33;;;10.23;;
16954;SDS011;8594;52.052;8.354;2023-08-12T02:52:35;17.50;;;10.07;;
16954;SDS011;8594;52.052;8.354;2023-08-12T02:55:02;17.63;;;10.00;;
16954;SDS011;8594;52.052;8.354;2023-08-12T02:57:29;16.73;;;10.30;;
16954;SDS011;8594;52.052;8.354;2023-08-12T02:59:56;15.70;;;10.30;;
16954;SDS011;8594;52.052;8.354;2023-08-12T03:02:23;15.97;;;10.13;;
16954;SDS011;8594;52.052;8.354;2023-08-12T03:04:51;18.27;;;11.37;;
16954;SDS011;8594;52.052;8.354;2023-08-12T03:07:18;19.87;;;11.43;;
16954;SDS011;8594;52.052;8.354;2023-08-12T03:09:45;18.87;;;10.97;;
16954;SDS011;8594;52.052;8.354;2023-08-12T03:12:12;21.83;;;12.90;;
16954;SDS011;8594;52.052;8.354;2023-08-12T03:14:39;20.53;;;13.33;;
16954;SDS011;8594;52.052;8.354;2023-08-12T03:17:06;20.93;;;12.77;;
16954;SDS011;8594;52.052;8.354;2023-08-12T03:19:33;21.43;;;11.27;;
16954;SDS011;8594;52.052;8.354;2023-08-12T03:22:01;25.90;;;13.03;;
16954;SDS011;8594;52.052;8.354;2023-08-12T03:24:28;16.93;;;11.57;;
16954;SDS011;8594;52.052;8.354;2023-08-12T03:26:55;21.53;;;13.07;;
16954;SDS011;8594;52.052;8.354;2023-08-12T03:29:22;21.07;;;12.57;;
16954;SDS011;8594;52.052;8.354;2023-08-12T03:31:49;18.93;;;12.23;;
16954;SDS011;8594;52.052;8.354;2023-08-12T03:34:15;20.37;;;12.73;;
16954;SDS011;8594;52.052;8.354;2023-08-12T03:36:42;17.97;;;11.77;;
16954;SDS011;8594;52.052;8.354;2023-08-12T03:39:12;18.40;;;11.77;;
16954;SDS011;8594;52.052;8.354;2023-08-12T03:41:39;20.03;;;14.10;;
16954;SDS011;8594;52.052;8.354;2023-08-12T03:44:06;18.53;;;12.17;;
16954;SDS011;8594;52.052;8.354;2023-08-12T03:46:32;19.03;;;13.00;;
16954;SDS011;8594;52.052;8.354;2023-08-12T03:48:59;26.77;;;13.67;;
16954;SDS011;8594;52.052;8.354;2023-08-12T03:51:26;20.60;;;13.30;;
16954;SDS011;8594;52.052;8.354;2023-08-12T03:53:53;23.77;;;14.77;;
16954;SDS011;8594;52.052;8.354;2023-08-12T03:56:22;29.93;;;15.13;;
16954;SDS011;8594;52.052;8.354;2023-08-12T03:58:49;28.20;;;16.17;;
16954;SDS011;8594;52.052;8.354;2023-08-12T04:01:17;26.93;;;15.50;;
16954;SDS011;8594;52.052;8.354;2023-08-12T04:03:44;28.10;;;17.63;;
16954;SDS011;8594;52.052;8.354;2023-08-12T04:06:11;28.67;;;17.83;;
16954;SDS011;8594;52.052;8.354;2023-08-12T04:08:38;33.10;;;19.57;;
16954;SDS011;8594;52.052;8.354;2023-08-12T04:11:05;30.63;;;18.63;;
16954;SDS011;8594;52.052;8.354;2023-08-12T04:13:33;29.90;;;18.20;;
16954;SDS011;8594;52.052;8.354;2023-08-12T04:16:00;30.80;;;18.57;;
16954;SDS011;8594;52.052;8.354;2023-08-12T04:18:27;30.83;;;19.90;;
16954;SDS011;8594;52.052;8.354;2023-08-12T04:20:54;25.83;;;17.50;;
16954;SDS011;8594;52.052;8.354;2023-08-12T04:23:21;35.10;;;20.00;;
16954;SDS011;8594;52.052;8.354;2023-08-12T04:25:48;25.83;;;17.57;;
16954;SDS011;8594;52.052;8.354;2023-08-12T04:28:15;31.57;;;20.57;;
16954;SDS011;8594;52.052;8.354;2023-08-12T04:30:45;37.90;;;21.90;;
16954;SDS011;8594;52.052;8.354;2023-08-12T04:33:15;38.03;;;22.97;;
16954;SDS011;8594;52.052;8.354;2023-08-12T04:35:42;32.60;;;19.37;;
16954;SDS011;8594;52.052;8.354;2023-08-12T04:38:09;33.77;;;21.93;;
16954;SDS011;8594;52.052;8.354;2023-08-12T04:40:38;33.93;;;20.50;;
16954;SDS011;8594;52.052;8.354;2023-08-12T04:43:05;36.63;;;23.27;;
16954;SDS011;8594;52.052;8.354;2023-08-12T04:45:33;32.37;;;21.57;;
16954;SDS011;8594;52.052;8.354;2023-08-12T04:48:02;37.73;;;21.93;;
16954;SDS011;8594;52.052;8.354;2023-08-12T04:50:29;37.87;;;22.03;;
16954;SDS011;8594;52.052;8.354;2023-08-12T04:52:59;30.37;;;21.30;;
16954;SDS011;8594;52.052;8.354;2023-08-12T04:55:26;34.07;;;23.07;;
16954;SDS011;8594;52.052;8.354;2023-08-12T04:57:53;35.73;;;22.60;;
16954;SDS011;8594;52.052;8.354;2023-08-12T05:00:20;41.57;;;25.17;;
16954;SDS011;8594;52.052;8.354;2023-08-12T05:02:48;39.13;;;24.40;;
16954;SDS011;8594;52.052;8.354;2023-08-12T05:05:17;36.37;;;21.83;;
16954;SDS011;8594;52.052;8.354;2023-08-12T05:07:44;34.93;;;23.90;;
16954;SDS011;8594;52.052;8.354;2023-08-12T05:10:14;38.43;;;24.17;;
16954;SDS011;8594;52.052;8.354;2023-08-12T05:12:41;40.47;;;25.60;;
16954;SDS011;8594;52.052;8.354;2023-08-12T05:15:09;39.77;;;25.77;;
16954;SDS011;8594;52.052;8.354;2023-08-12T05:17:36;33.43;;;23.30;;
16954;SDS011;8594;52.052;8.354;2023-08-12T05:20:03;42.37;;;26.20;;
16954;SDS011;8594;52.052;8.354;2023-08-12T05:22:33;39.60;;;24.77;;
16954;SDS011;8594;52.052;8.354;2023-08-12T05:25:00;39.30;;;25.27;;
16954;SDS011;8594;52.052;8.354;2023-08-12T05:27:27;41.80;;;25.70;;
16954;SDS011;8594;52.052;8.354;2023-08-12T05:29:54;36.27;;;23.17;;
16954;SDS011;8594;52.052;8.354;2023-08-12T05:32:21;40.77;;;24.67;;
16954;SDS011;8594;52.052;8.354;2023-08-12T05:34:49;36.07;;;22.90;;
16954;SDS011;8594;52.052;8.354;2023-08-12T05:37:18;40.10;;;24.63;;
16954;SDS011;8594;52.052;8.354;2023-08-12T05:39:46;42.17;;;24.87;;
16954;SDS011;8594;52.052;8.354;2023-08-12T05:42:13;40.83;;;25.30;;
16954;SDS011;8594;52.052;8.354;2023-08-12T05:44:40;36.60;;;22.97;;
16954;SDS011;8594;52.052;8.354;2023-08-12T05:47:07;39.03;;;24.60;;
16954;SDS011;8594;52.052;8.354;2023-08-12T05:49:34;36.37;;;22.30;;
16954;SDS011;8594;52.052;8.354;2023-08-12T05:52:01;37.90;;;23.50;;
16954;SDS011;8594;52.052;8.354;2023-08-12T05:54:28;34.43;;;21.60;;
16954;SDS011;8594;52.052;8.354;2023-08-12T05:56:57;31.30;;;21.60;;
16954;SDS011;8594;52.052;8.354;2023-08-12T05:59:25;36.10;;;22.90;;
16954;SDS011;8594;52.052;8.354;2023-08-12T06:01:52;36.13;;;22.27;;
16954;SDS011;8594;52.052;8.354;2023-08-12T06:04:19;38.10;;;24.70;;
16954;SDS011;8594;52.052;8.354;2023-08-12T06:06:46;35.37;;;23.40;;
16954;SDS011;8594;52.052;8.354;2023-08-12T06:09:13;42.17;;;25.37;;
16954;SDS011;8594;52.052;8.354;2023-08-12T06:11:40;34.93;;;22.57;;
16954;SDS011;8594;52.052;8.354;2023-08-12T06:14:09;38.93;;;24.47;;
16954;SDS011;8594;52.052;8.354;2023-08-12T06:16:36;36.63;;;25.17;;
16954;SDS011;8594;52.052;8.354;2023-08-12T06:19:02;40.40;;;25.03;;
16954;SDS011;8594;52.052;8.354;2023-08-12T06:21:30;36.40;;;22.77;;
16954;SDS011;8594;52.052;8.354;2023-08-12T06:23:57;37.13;;;24.53;;
16954;SDS011;8594;52.052;8.354;2023-08-12T06:26:24;37.93;;;25.23;;
16954;SDS011;8594;52.052;8.354;2023-08-12T06:28:53;33.57;;;21.50;;
16954;SDS011;8594;52.052;8.354;2023-08-12T06:31:21;38.63;;;23.87;;
16954;SDS011;8594;52.052;8.354;2023-08-12T06:33:48;35.60;;;21.97;;
16954;SDS011;8594;52.052;8.354;2023-08-12T06:36:15;39.97;;;22.67;;
16954;SDS011;8594;52.052;8.354;2023-08-12T06:38:42;41.80;;;24.27;;
16954;SDS011;8594;52.052;8.354;2023-08-12T06:41:09;34.60;;;22.57;;
16954;SDS011;8594;52.052;8.354;2023-08-12T06:43:35;39.33;;;23.57;;
16954;SDS011;8594;52.052;8.354;2023-08-12T06:46:02;39.43;;;23.80;;
16954;SDS011;8594;52.052;8.354;2023-08-12T06:48:30;35.13;;;22.53;;
16954;SDS011;8594;52.052;8.354;2023-08-12T06:50:57;30.87;;;21.43;;
16954;SDS011;8594;52.052;8.354;2023-08-12T06:53:24;32.77;;;21.33;;
16954;SDS011;8594;52.052;8.354;2023-08-12T06:55:52;32.03;;;20.87;;
16954;SDS011;8594;52.052;8.354;2023-08-12T06:58:19;29.60;;;19.73;;
16954;SDS011;8594;52.052;8.354;2023-08-12T07:00:47;35.17;;;22.23;;
16954;SDS011;8594;52.052;8.354;2023-08-12T07:03:14;31.77;;;20.97;;
16954;SDS011;8594;52.052;8.354;2023-08-12T07:05:42;33.13;;;20.30;;
16954;SDS011;8594;52.052;8.354;2023-08-12T07:08:09;29.30;;;18.47;;
16954;SDS011;8594;52.052;8.354;2023-08-12T07:10:37;31.20;;;18.97;;
16954;SDS011;8594;52.052;8.354;2023-08-12T07:13:04;25.63;;;16.53;;
16954;SDS011;8594;52.052;8.354;2023-08-12T07:15:31;27.97;;;18.77;;
16954;SDS011;8594;52.052;8.354;2023-08-12T07:17:58;25.73;;;16.73;;
16954;SDS011;8594;52.052;8.354;2023-08-12T07:20:25;24.47;;;15.93;;
16954;SDS011;8594;52.052;8.354;2023-08-12T07:22:54;26.57;;;16.83;;
16954;SDS011;8594;52.052;8.354;2023-08-12T07:25:21;27.13;;;17.10;;
16954;SDS011;8594;52.052;8.354;2023-08-12T07:27:48;24.83;;;16.70;;
16954;SDS011;8594;52.052;8.354;2023-08-12T07:30:15;25.93;;;17.47;;
16954;SDS011;8594;52.052;8.354;2023-08-12T07:32:43;28.67;;;16.67;;
16954;SDS011;8594;52.052;8.354;2023-08-12T07:35:10;26.50;;;16.37;;
16954;SDS011;8594;52.052;8.354;2023-08-12T07:37:37;24.80;;;16.27;;
16954;SDS011;8594;52.052;8.354;2023-08-12T07:40:05;26.77;;;16.30;;
16954;SDS011;8594;52.052;8.354;2023-08-12T07:42:33;24.33;;;15.87;;
16954;SDS011;8594;52.052;8.354;2023-08-12T07:45:00;25.60;;;16.17;;
16954;SDS011;8594;52.052;8.354;2023-08-12T07:47:28;23.07;;;16.90;;
16954;SDS011;8594;52.052;8.354;2023-08-12T07:49:55;23.83;;;15.63;;
16954;SDS011;8594;52.052;8.354;2023-08-12T07:52:22;21.70;;;16.17;;
16954;SDS011;8594;52.052;8.354;2023-08-12T07:54:48;24.07;;;16.07;;
16954;SDS011;8594;52.052;8.354;2023-08-12T07:57:17;23.87;;;16.73;;
16954;SDS011;8594;52.052;8.354;2023-08-12T07:59:45;27.33;;;17.23;;
16954;SDS011;8594;52.052;8.354;2023-08-12T08:02:12;24.07;;;16.00;;
16954;SDS011;8594;52.052;8.354;2023-08-12T08:04:39;26.13;;;16.70;;
16954;SDS011;8594;52.052;8.354;2023-08-12T08:07:06;29.20;;;19.83;;
16954;SDS011;8594;52.052;8.354;2023-08-12T08:09:33;25.53;;;18.00;;
16954;SDS011;8594;52.052;8.354;2023-08-12T08:12:01;29.30;;;19.30;;
16954;SDS011;8594;52.052;8.354;2023-08-12T08:14:30;24.73;;;16.63;;
16954;SDS011;8594;52.052;8.354;2023-08-12T08:16:57;27.37;;;18.70;;
16954;SDS011;8594;52.052;8.354;2023-08-12T08:19:24;26.53;;;20.20;;
16954;SDS011;8594;52.052;8.354;2023-08-12T08:21:51;27.67;;;18.43;;
16954;SDS011;8594;52.052;8.354;2023-08-12T08:24:18;23.47;;;16.63;;
16954;SDS011;8594;52.052;8.354;2023-08-12T08:26:45;25.40;;;16.17;;
16954;SDS011;8594;52.052;8.354;2023-08-12T08:29:12;26.60;;;18.13;;
16954;SDS011;8594;52.052;8.354;2023-08-12T08:31:40;30.00;;;18.07;;
16954;SDS011;8594;52.052;8.354;2023-08-12T08:34:07;26.07;;;17.77;;
16954;SDS011;8594;52.052;8.354;2023-08-12T08:36:34;20.27;;;14.83;;
16954;SDS011;8594;52.052;8.354;2023-08-12T08:39:02;21.00;;;15.73;;
16954;SDS011;8594;52.052;8.354;2023-08-12T08:41:29;28.13;;;17.27;;
16954;SDS011;8594;52.052;8.354;2023-08-12T08:44:01;24.30;;;16.83;;
16954;SDS011;8594;52.052;8.354;2023-08-12T08:46:32;24.00;;;16.37;;
16954;SDS011;8594;52.052;8.354;2023-08-12T08:49:00;25.93;;;16.77;;
16954;SDS011;8594;52.052;8.354;2023-08-12T08:51:28;21.17;;;15.17;;
16954;SDS011;8594;52.052;8.354;2023-08-12T08:53:57;23.70;;;16.33;;
16954;SDS011;8594;52.052;8.354;2023-08-12T08:56:24;22.77;;;16.97;;
16954;SDS011;8594;52.052;8.354;2023-08-12T08:58:52;25.00;;;15.50;;
16954;SDS011;8594;52.052;8.354;2023-08-12T09:01:19;24.33;;;17.50;;
16954;SDS011;8594;52.052;8.354;2023-08-12T09:03:48;23.10;;;17.63;;
16954;SDS011;8594;52.052;8.354;2023-08-12T09:06:20;26.30;;;18.47;;
16954;SDS011;8594;52.052;8.354;2023-08-12T09:08:48;24.93;;;18.40;;
16954;SDS011;8594;52.052;8.354;2023-08-12T09:11:18;23.73;;;18.00;;
16954;SDS011;8594;52.052;8.354;2023-08-12T09:13:46;29.57;;;18.37;;
16954;SDS011;8594;52.052;8.354;2023-08-12T09:16:13;24.80;;;17.57;;
16954;SDS011;8594;52.052;8.354;2023-08-12T09:18:42;25.97;;;17.97;;
16954;SDS011;8594;52.052;8.354;2023-08-12T09:21:10;22.83;;;16.70;;
16954;SDS011;8594;52.052;8.354;2023-08-12T09:23:39;24.20;;;17.27;;
16954;SDS011;8594;52.052;8.354;2023-08-12T09:26:15;26.43;;;17.50;;
16954;SDS011;8594;52.052;8.354;2023-08-12T09:28:43;22.17;;;16.77;;
16954;SDS011;8594;52.052;8.354;2023-08-12T09:31:21;23.93;;;17.63;;
16954;SDS011;8594;52.052;8.354;2023-08-12T09:33:50;22.60;;;15.87;;
16954;SDS011;8594;52.052;8.354;2023-08-12T09:36:18;23.90;;;16.77;;
16954;SDS011;8594;52.052;8.354;2023-08-12T09:38:48;19.90;;;13.10;;
16954;SDS011;8594;52.052;8.354;2023-08-12T09:41:15;16.40;;;12.10;;
16954;SDS011;8594;52.052;8.354;2023-08-12T09:43:42;21.37;;;14.40;;
16954;SDS011;8594;52.052;8.354;2023-08-12T09:46:10;16.63;;;11.97;;
16954;SDS011;8594;52.052;8.354;2023-08-12T09:48:39;15.97;;;11.73;;
16954;SDS011;8594;52.052;8.354;2023-08-12T09:51:06;17.80;;;11.83;;
16954;SDS011;8594;52.052;8.354;2023-08-12T09:53:35;15.90;;;9.40;;
16954;SDS011;8594;52.052;8.354;2023-08-12T09:56:05;12.63;;;10.17;;
16954;SDS011;8594;52.052;8.354;2023-08-12T09:58:35;12.37;;;9.40;;
16954;SDS011;8594;52.052;8.354;2023-08-12T10:01:03;11.43;;;8.80;;
16954;SDS011;8594;52.052;8.354;2023-08-12T10:03:31;11.80;;;8.10;;
16954;SDS011;8594;52.052;8.354;2023-08-12T10:06:00;11.93;;;7.60;;
16954;SDS011;8594;52.052;8.354;2023-08-12T10:08:28;9.13;;;6.53;;
16954;SDS011;8594;52.052;8.354;2023-08-12T10:10:55;9.50;;;7.03;;
16954;SDS011;8594;52.052;8.354;2023-08-12T10:13:24;10.50;;;6.67;;
16954;SDS011;8594;52.052;8.354;2023-08-12T10:15:51;11.47;;;6.37;;
16954;SDS011;8594;52.052;8.354;2023-08-12T10:18:19;8.47;;;5.20;;
16954;SDS011;8594;52.052;8.354;2023-08-12T10:20:48;9.23;;;6.10;;
16954;SDS011;8594;52.052;8.354;2023-08-12T10:23:18;7.00;;;5.20;;
16954;SDS011;8594;52.052;8.354;2023-08-12T10:25:45;7.63;;;5.10;;
16954;SDS011;8594;52.052;8.354;2023-08-12T10:28:15;4.30;;;3.73;;
16954;SDS011;8594;52.052;8.354;2023-08-12T10:30:46;8.57;;;4.47;;
16954;SDS011;8594;52.052;8.354;2023-08-12T10:33:13;7.73;;;3.87;;
16954;SDS011;8594;52.052;8.354;2023-08-12T10:35:44;5.03;;;3.73;;
16954;SDS011;8594;52.052;8.354;2023-08-12T10:38:17;5.90;;;3.43;;
16954;SDS011;8594;52.052;8.354;2023-08-12T10:40:45;3.07;;;2.77;;
16954;SDS011;8594;52.052;8.354;2023-08-12T10:43:13;5.77;;;3.07;;
16954;SDS011;8594;52.052;8.354;2023-08-12T10:45:41;3.27;;;2.77;;
16954;SDS011;8594;52.052;8.354;2023-08-12T10:48:17;3.43;;;2.40;;
16954;SDS011;8594;52.052;8.354;2023-08-12T10:50:48;3.40;;;2.43;;
16954;SDS011;8594;52.052;8.354;2023-08-12T10:53:20;2.97;;;2.47;;
16954;SDS011;8594;52.052;8.354;2023-08-12T10:55:49;2.90;;;2.30;;
16954;SDS011;8594;52.052;8.354;2023-08-12T10:58:29;4.80;;;2.50;;
16954;SDS011;8594;52.052;8.354;2023-08-12T11:01:01;3.80;;;2.60;;
16954;SDS011;8594;52.052;8.354;2023-08-12T11:03:32;5.03;;;2.70;;
16954;SDS011;8594;52.052;8.354;2023-08-12T11:06:01;4.77;;;2.33;;
16954;SDS011;8594;52.052;8.354;2023-08-12T11:08:29;3.00;;;2.23;;
16954;SDS011;8594;52.052;8.354;2023-08-12T11:10:56;3.63;;;2.10;;
16954;SDS011;8594;52.052;8.354;2023-08-12T11:13:26;3.40;;;2.13;;
16954;SDS011;8594;52.052;8.354;2023-08-12T11:16:05;5.40;;;2.40;;
16954;SDS011;8594;52.052;8.354;2023-08-12T11:18:35;4.73;;;2.10;;
16954;SDS011;8594;52.052;8.354;2023-08-12T11:21:02;3.83;;;2.13;;
16954;SDS011;8594;52.052;8.354;2023-08-12T11:23:30;4.53;;;2.40;;
16954;SDS011;8594;52.052;8.354;2023-08-12T11:25:57;3.97;;;2.40;;
16954;SDS011;8594;52.052;8.354;2023-08-12T11:28:24;4.37;;;2.13;;
16954;SDS011;8594;52.052;8.354;2023-08-12T11:30:51;2.77;;;2.20;;
16954;SDS011;8594;52.052;8.354;2023-08-12T11:33:18;3.93;;;2.30;;
16954;SDS011;8594;52.052;8.354;2023-08-12T11:35:48;2.63;;;2.00;;
16954;SDS011;8594;52.052;8.354;2023-08-12T11:38:15;2.53;;;2.03;;
16954;SDS011;8594;52.052;8.354;2023-08-12T11:40:42;2.73;;;2.00;;
16954;SDS011;8594;52.052;8.354;2023-08-12T11:43:09;2.50;;;1.97;;
16954;SDS011;8594;52.052;8.354;2023-08-12T11:45:36;2.60;;;1.80;;
16954;SDS011;8594;52.052;8.354;2023-08-12T11:48:07;4.47;;;2.10;;
16954;SDS011;8594;52.052;8.354;2023-08-12T11:50:35;2.40;;;2.00;;
16954;SDS011;8594;52.052;8.354;2023-08-12T11:53:04;2.23;;;1.80;;
16954;SDS011;8594;52.052;8.354;2023-08-12T11:55:31;2.33;;;2.00;;
16954;SDS011;8594;52.052;8.354;2023-08-12T11:57:58;2.10;;;1.90;;
16954;SDS011;8594;52.052;8.354;2023-08-12T12:00:25;3.80;;;2.07;;
16954;SDS011;8594;52.052;8.354;2023-08-12T12:02:53;3.63;;;2.07;;
16954;SDS011;8594;52.052;8.354;2023-08-12T12:05:22;2.33;;;1.90;;
16954;SDS011;8594;52.052;8.354;2023-08-12T12:07:51;4.13;;;2.30;;
16954;SDS011;8594;52.052;8.354;2023-08-12T12:10:20;3.40;;;1.90;;
16954;SDS011;8594;52.052;8.354;2023-08-12T12:12:54;3.77;;;1.73;;
16954;SDS011;8594;52.052;8.354;2023-08-12T12:15:21;2.77;;;1.57;;
16954;SDS011;8594;52.052;8.354;2023-08-12T12:17:49;2.80;;;1.63;;
16954;SDS011;8594;52.052;8.354;2023-08-12T12:20:17;2.97;;;1.73;;
16954;SDS011;8594;52.052;8.354;2023-08-12T12:22:45;2.63;;;2.03;;
16954;SDS011;8594;52.052;8.354;2023-08-12T12:25:14;2.73;;;1.70;;
16954;SDS011;8594;52.052;8.354;2023-08-12T12:27:46;2.73;;;1.50;;
16954;SDS011;8594;52.052;8.354;2023-08-12T12:30:14;1.90;;;1.60;;
16954;SDS011;8594;52.052;8.354;2023-08-12T12:32:42;3.37;;;1.87;;
16954;SDS011;8594;52.052;8.354;2023-08-12T12:35:10;3.17;;;2.07;;
16954;SDS011;8594;52.052;8.354;2023-08-12T12:37:36;1.90;;;1.50;;
16954;SDS011;8594;52.052;8.354;2023-08-12T12:40:04;2.50;;;1.67;;
16954;SDS011;8594;52.052;8.354;2023-08-12T12:42:33;4.40;;;1.80;;
16954;SDS011;8594;52.052;8.354;2023-08-12T12:45:01;2.53;;;1.90;;
16954;SDS011;8594;52.052;8.354;2023-08-12T12:47:28;3.13;;;2.10;;
16954;SDS011;8594;52.052;8.354;2023-08-12T12:49:55;4.17;;;2.23;;
16954;SDS011;8594;52.052;8.354;2023-08-12T12:52:22;3.83;;;2.53;;
16954;SDS011;8594;52.052;8.354;2023-08-12T12:54:49;3.20;;;2.50;;
16954;SDS011;8594;52.052;8.354;2023-08-12T12:57:16;3.73;;;2.77;;
16954;SDS011;8594;52.052;8.354;2023-08-12T12:59:43;3.80;;;2.93;;
16954;SDS011;8594;52.052;8.354;2023-08-12T13:02:11;3.00;;;2.70;;
16954;SDS011;8594;52.052;8.354;2023-08-12T13:04:38;4.07;;;3.30;;
16954;SDS011;8594;52.052;8.354;2023-08-12T13:07:05;4.03;;;3.27;;
16954;SDS011;8594;52.052;8.354;2023-08-12T13:09:32;3.60;;;3.13;;
16954;SDS011;8594;52.052;8.354;2023-08-12T13:11:59;3.80;;;3.33;;
16954;SDS011;8594;52.052;8.354;2023-08-12T13:14:26;5.07;;;4.00;;
16954;SDS011;8594;52.052;8.354;2023-08-12T13:16:55;5.77;;;4.27;;
16954;SDS011;8594;52.052;8.354;2023-08-12T13:19:23;6.93;;;4.47;;
16954;SDS011;8594;52.052;8.354;2023-08-12T13:21:50;8.97;;;4.50;;
16954;SDS011;8594;52.052;8.354;2023-08-12T13:24:17;4.83;;;4.03;;
16954;SDS011;8594;52.052;8.354;2023-08-12T13:26:45;10.23;;;5.83;;
16954;SDS011;8594;52.052;8.354;2023-08-12T13:29:12;9.37;;;4.67;;
16954;SDS011;8594;52.052;8.354;2023-08-12T13:31:39;6.50;;;5.60;;
16954;SDS011;8594;52.052;8.354;2023-08-12T13:34:06;9.00;;;5.73;;
16954;SDS011;8594;52.052;8.354;2023-08-12T13:36:34;7.00;;;5.63;;
16954;SDS011;8594;52.052;8.354;2023-08-12T13:39:01;6.10;;;5.37;;
16954;SDS011;8594;52.052;8.354;2023-08-12T13:41:28;7.70;;;5.20;;
16954;SDS011;8594;52.052;8.354;2023-08-12T13:43:55;5.33;;;4.83;;
16954;SDS011;8594;52.052;8.354;2023-08-12T13:46:22;7.97;;;5.00;;
16954;SDS011;8594;52.052;8.354;2023-08-12T13:48:49;5.10;;;4.50;;
16954;SDS011;8594;52.052;8.354;2023-08-12T13:51:16;6.43;;;4.90;;
16954;SDS011;8594;52.052;8.354;2023-08-12T13:53:44;6.00;;;4.67;;
16954;SDS011;8594;52.052;8.354;2023-08-12T13:56:11;5.10;;;4.40;;
16954;SDS011;8594;52.052;8.354;2023-08-12T13:58:38;5.67;;;4.50;;
16954;SDS011;8594;52.052;8.354;2023-08-12T14:01:05;5.67;;;4.53;;
16954;SDS011;8594;52.052;8.354;2023-08-12T14:03:31;5.37;;;4.87;;
16954;SDS011;8594;52.052;8.354;2023-08-12T14:05:59;5.03;;;4.53;;
16954;SDS011;8594;52.052;8.354;2023-08-12T14:08:26;6.87;;;4.73;;
16954;SDS011;8594;52.052;8.354;2023-08-12T14:10:54;5.40;;;4.90;;
16954;SDS011;8594;52.052;8.354;2023-08-12T14:13:21;8.87;;;5.60;;
16954;SDS011;8594;52.052;8.354;2023-08-12T14:15:48;5.83;;;4.80;;
16954;SDS011;8594;52.052;8.354;2023-08-12T14:18:15;5.20;;;4.70;;
16954;SDS011;8594;52.052;8.354;2023-08-12T14:20:42;5.80;;;4.13;;
16954;SDS011;8594;52.052;8.354;2023-08-12T14:23:09;4.47;;;3.93;;
16954;SDS011;8594;52.052;8.354;2023-08-12T14:25:36;4.57;;;4.17;;
16954;SDS011;8594;52.052;8.354;2023-08-12T14:28:04;6.07;;;4.10;;
16954;SDS011;8594;52.052;8.354;2023-08-12T14:30:32;4.67;;;3.60;;
16954;SDS011;8594;52.052;8.354;2023-08-12T14:32:59;4.10;;;3.70;;
16954;SDS011;8594;52.052;8.354;2023-08-12T14:35:25;5.20;;;3.87;;
16954;SDS011;8594;52.052;8.354;2023-08-12T14:37:52;4.80;;;4.30;;
16954;SDS011;8594;52.052;8.354;2023-08-12T14:40:19;4.83;;;3.60;;
16954;SDS011;8594;52.052;8.354;2023-08-12T14:42:47;3.83;;;3.53;;
16954;SDS011;8594;52.052;8.354;2023-08-12T14:45:15;4.80;;;3.50;;
16954;SDS011;8594;52.052;8.354;2023-08-12T14:47:42;6.40;;;3.90;;
16954;SDS011;8594;52.052;8.354;2023-08-12T14:50:09;6.37;;;3.50;;